Time;durP1;ratioP1;P1;durP2;ratioP2;P2;SDS_P1;SDS_P2;PMS_P1;PMS_P2;Temp;Humidity;BMP_temperature;BMP_pressure;BME280_temperature;BME280_humidity;BME280_pressure;Samples;Min_cycle;Max_cycle;Signal;HPM_P1;HPM_P2
2021/09/07 00:00:01;;;;;;;11.68;6.25;;;;;;;15.38;78.40;100902.03;2817057;83;21013;-58
2021/09/07 00:04:14;;;;;;;26.23;10.20;;;;;;;15.37;78.20;100907.87;2802104;85;21033;-59
2021/09/07 00:08:16;;;;;;;19.57;6.92;;;;;;;15.37;78.65;100891.78;2754279;84;21032;-60
2021/09/07 00:12:22;;;;;;;12.35;7.62;;;;;;;15.43;78.86;100906.45;2798152;85;21017;-62
2021/09/07 00:16:23;;;;;;;9.80;6.92;;;;;;;15.49;78.31;100905.88;2864479;83;20951;-58
2021/09/07 00:20:25;;;;;;;9.35;6.10;;;;;;;15.53;78.60;100908.65;2864448;83;20995;-60
2021/09/07 00:24:38;;;;;;;14.58;6.90;;;;;;;15.63;78.71;100903.27;2864385;83;20972;-61
2021/09/07 00:28:40;;;;;;;7.12;5.47;;;;;;;15.64;78.65;100889.35;2844973;83;20970;-58
2021/09/07 00:32:42;;;;;;;9.75;6.35;;;;;;;15.52;78.86;100885.48;2843114;83;21001;-58
2021/09/07 00:36:43;;;;;;;10.63;6.55;;;;;;;15.45;78.88;100880.35;2843104;84;21025;-59
2021/09/07 00:40:45;;;;;;;8.70;6.33;;;;;;;15.38;79.26;100875.22;2843110;83;20989;-61
2021/09/07 00:44:53;;;;;;;8.00;5.87;;;;;;;15.35;79.32;100873.66;2843025;83;20993;-58
2021/09/07 00:48:55;;;;;;;10.43;6.45;;;;;;;15.30;79.25;100877.75;2843074;84;20989;-60
2021/09/07 00:53:09;;;;;;;10.85;5.95;;;;;;;15.31;79.09;100880.30;2843097;84;20962;-58
2021/09/07 00:57:11;;;;;;;11.45;6.40;;;;;;;15.35;78.98;100880.36;2842914;84;21001;-64
2021/09/07 01:01:13;;;;;;;10.25;6.33;;;;;;;15.41;78.47;100872.25;2843100;84;21004;-66
2021/09/07 01:05:15;;;;;;;10.30;6.80;;;;;;;15.42;78.51;100864.56;2842906;82;20997;-58
2021/09/07 01:09:17;;;;;;;10.35;8.98;;;;;;;15.31;78.65;100870.06;2842974;83;20962;-58
2021/09/07 01:13:19;;;;;;;15.53;9.53;;;;;;;15.09;79.80;100870.70;2843055;84;21044;-58
2021/09/07 01:17:27;;;;;;;13.88;8.35;;;;;;;14.94;80.70;100870.30;2842995;84;21002;-58
2021/09/07 01:21:29;;;;;;;14.33;8.70;;;;;;;14.86;81.25;100869.64;2843077;83;21009;-58
2021/09/07 01:25:31;;;;;;;11.68;7.62;;;;;;;14.84;81.55;100867.60;2842426;83;21001;-62
2021/09/07 01:29:35;;;;;;;17.37;8.50;;;;;;;14.92;81.33;100873.09;2843088;83;20970;-62
2021/09/07 01:33:56;;;;;;;10.03;7.45;;;;;;;15.05;81.38;100865.28;2842945;83;20996;-60
2021/09/07 01:38:00;;;;;;;9.63;6.97;;;;;;;15.22;81.19;100855.67;2842898;83;20926;-58
2021/09/07 01:42:03;;;;;;;10.25;6.80;;;;;;;15.33;80.31;100857.36;2851496;83;21012;-59
2021/09/07 01:46:05;;;;;;;9.60;6.83;;;;;;;15.45;80.34;100850.86;2858637;83;21000;-58
2021/09/07 01:50:24;;;;;;;14.23;7.10;;;;;;;15.52;79.81;100853.81;2858722;83;21019;-58
2021/09/07 01:54:25;;;;;;;9.10;6.55;;;;;;;15.58;79.75;100851.89;2858694;83;20956;-62
2021/09/07 02:03:53;;;;;;;9.28;6.33;;;;;;;15.63;80.08;100848.30;2858681;83;20975;-58
2021/09/07 02:08:21;;;;;;;12.55;7.50;;;;;;;15.67;79.90;100856.39;2858743;83;21035;-59
2021/09/07 02:12:23;;;;;;;10.03;6.75;;;;;;;15.70;79.75;100851.22;2858772;83;20985;-58
2021/09/07 02:16:25;;;;;;;7.85;5.95;;;;;;;15.79;79.44;100843.66;2858754;83;21066;-58
2021/09/07 02:21:29;;;;;;;10.75;7.08;;;;;;;15.78;79.32;100845.98;2858538;83;21035;-59
2021/09/07 02:25:31;;;;;;;9.73;7.67;;;;;;;15.79;79.54;100850.36;2858334;83;20948;-59
2021/09/07 02:30:22;;;;;;;10.70;8.48;;;;;;;15.68;80.48;100838.45;2906200;82;20988;-61
2021/09/07 02:42:44;;;;;;;12.03;8.13;;;;;;;15.89;81.09;100841.45;2763547;82;71108;-71
2021/09/07 02:46:47;;;;;;;11.28;8.50;;;;;;;15.90;81.15;100839.11;2752742;86;21076;-71
2021/09/07 02:50:49;;;;;;;9.93;7.08;;;;;;;15.96;81.19;100836.69;2752525;86;21043;-71
2021/09/07 02:54:52;;;;;;;10.10;8.53;;;;;;;15.99;80.92;100831.53;2752584;86;21096;-72
2021/09/07 02:58:54;;;;;;;10.68;7.60;;;;;;;16.05;80.69;100833.62;2754599;85;21030;-72
2021/09/07 03:02:55;;;;;;;13.38;8.10;;;;;;;16.06;80.47;100828.59;2753641;85;20974;-72
2021/09/07 03:07:04;;;;;;;7.10;6.03;;;;;;;16.05;80.29;100834.13;2752803;86;21080;-73
2021/09/07 03:11:08;;;;;;;9.03;6.40;;;;;;;16.09;80.83;100826.95;2752747;85;20978;-73
2021/09/07 03:15:10;;;;;;;11.48;7.95;;;;;;;16.15;80.67;100829.55;2752844;86;21056;-72
2021/09/07 03:19:12;;;;;;;11.05;7.85;;;;;;;16.20;80.75;100838.50;2752802;86;21029;-72
2021/09/07 03:23:14;;;;;;;12.13;9.38;;;;;;;16.18;80.92;100835.95;2752405;86;21084;-72
2021/09/07 03:27:16;;;;;;;13.70;8.78;;;;;;;16.16;81.45;100831.23;2752691;86;21096;-72
2021/09/07 03:31:17;;;;;;;11.85;7.20;;;;;;;16.23;81.46;100834.17;2752340;86;21037;-72
2021/09/07 03:35:19;;;;;;;11.60;8.43;;;;;;;16.26;81.34;100833.87;2752609;85;21024;-72
2021/09/07 03:39:21;;;;;;;11.80;7.72;;;;;;;16.34;81.25;100843.86;2752102;86;21010;-72
2021/09/07 03:43:22;;;;;;;13.62;9.38;;;;;;;16.33;80.88;100834.98;2737527;85;21044;-72
2021/09/07 03:47:24;;;;;;;16.55;9.35;;;;;;;16.32;80.98;100842.69;2734162;87;21095;-72
2021/09/07 03:51:26;;;;;;;12.18;8.85;;;;;;;16.31;80.84;100839.66;2734100;87;21063;-73
2021/09/07 03:55:28;;;;;;;13.70;9.60;;;;;;;16.24;80.91;100836.72;2734166;85;21075;-72
2021/09/07 03:59:29;;;;;;;14.85;8.65;;;;;;;16.22;80.97;100835.16;2734198;87;21000;-72
2021/09/07 04:03:31;;;;;;;13.22;8.50;;;;;;;16.17;81.31;100833.44;2733886;86;21079;-71
2021/09/07 04:07:33;;;;;;;15.60;9.93;;;;;;;15.95;81.96;100839.03;2734199;87;21032;-73
2021/09/07 04:11:34;;;;;;;13.22;9.13;;;;;;;15.96;82.73;100843.91;2733944;87;21079;-73
2021/09/07 04:15:36;;;;;;;10.28;8.48;;;;;;;15.99;82.86;100843.61;2733962;87;20999;-72
2021/09/07 04:19:38;;;;;;;12.80;10.10;;;;;;;16.05;82.62;100844.86;2734181;85;21008;-72
2021/09/07 04:23:39;;;;;;;52.00;15.30;;;;;;;16.10;82.71;100843.91;2734176;87;21115;-72
2021/09/07 04:27:41;;;;;;;50.48;16.37;;;;;;;16.13;82.33;100849.84;2734234;85;21011;-71
2021/09/07 04:31:43;;;;;;;28.42;11.00;;;;;;;16.12;81.96;100856.69;2733971;87;21067;-71
2021/09/07 04:35:44;;;;;;;33.45;11.73;;;;;;;16.07;82.22;100865.17;2734239;85;21047;-72
2021/09/07 04:39:50;;;;;;;18.70;10.13;;;;;;;16.09;82.60;100869.89;2733900;87;20972;-71
2021/09/07 04:43:50;;;;;;;15.30;8.55;;;;;;;16.09;82.74;100872.58;2710225;86;21043;-71
2021/09/07 04:47:51;;;;;;;10.95;8.05;;;;;;;16.11;83.30;100879.15;2707651;88;21078;-72
2021/09/07 04:51:53;;;;;;;17.42;8.28;;;;;;;16.10;82.97;100883.66;2707428;88;21509;-72
2021/09/07 04:55:55;;;;;;;17.90;9.25;;;;;;;16.01;83.45;100885.89;2707520;88;21030;-71
2021/09/07 04:59:57;;;;;;;14.78;8.80;;;;;;;15.91;83.35;100886.41;2707674;88;20999;-72
2021/09/07 05:03:58;;;;;;;11.60;9.45;;;;;;;15.71;84.09;100884.61;2707451;86;20987;-72
2021/09/07 05:08:00;;;;;;;14.93;9.35;;;;;;;15.62;84.35;100881.44;2707444;88;21603;-72
2021/09/07 05:12:02;;;;;;;18.60;12.13;;;;;;;15.59;84.98;100888.44;2707358;88;20976;-72
2021/09/07 05:16:04;;;;;;;28.80;19.00;;;;;;;15.58;85.52;100892.62;2707548;88;21512;-72
2021/09/07 05:20:07;;;;;;;46.28;26.77;;;;;;;15.70;85.48;100888.28;2707725;88;21506;-72
2021/09/07 05:24:09;;;;;;;35.10;22.98;;;;;;;15.81;85.28;100895.80;2706986;88;20979;-72
2021/09/07 05:28:11;;;;;;;45.40;24.90;;;;;;;15.95;85.39;100890.52;2707664;88;21085;-71
2021/09/07 05:32:13;;;;;;;49.58;28.57;;;;;;;15.93;85.05;100891.16;2707495;88;21078;-72
2021/09/07 05:36:15;;;;;;;85.12;49.15;;;;;;;15.90;85.43;100890.08;2707688;85;21025;-72
2021/09/07 05:40:18;;;;;;;95.10;49.48;;;;;;;16.01;85.10;100891.26;2708231;88;21018;-72
2021/09/07 05:44:22;;;;;;;83.62;51.10;;;;;;;16.15;84.83;100898.49;2695661;86;21011;-72
2021/09/07 05:48:23;;;;;;;86.92;47.73;;;;;;;16.40;85.17;100895.59;2708550;88;21091;-71
2021/09/07 05:52:25;;;;;;;82.95;44.27;;;;;;;16.64;83.81;100899.08;2708754;88;21082;-71
2021/09/07 05:56:28;;;;;;;87.10;45.95;;;;;;;16.75;82.66;100902.56;2709278;87;21066;-72
2021/09/07 06:00:31;;;;;;;115.67;54.58;;;;;;;16.83;82.72;100895.92;2709190;88;21043;-71
2021/09/07 06:04:32;;;;;;;96.95;54.88;;;;;;;16.99;84.14;100901.50;2709259;87;21630;-72
2021/09/07 06:08:34;;;;;;;83.07;46.73;;;;;;;17.21;85.24;100905.23;2709542;85;21011;-71
2021/09/07 06:12:36;;;;;;;70.45;36.83;;;;;;;17.42;84.66;100903.55;2709262;87;21050;-71
2021/09/07 06:20:45;;;;;;;54.48;34.08;;;;;;;18.08;84.75;100909.91;2904156;82;21097;-72
2021/09/07 06:24:49;;;;;;;22.95;15.88;;;;;;;18.38;83.91;100903.66;2903861;82;21537;-72
2021/09/07 06:28:50;;;;;;;28.92;17.77;;;;;;;18.64;81.98;100917.03;2903960;81;21066;-72
2021/09/07 06:32:53;;;;;;;26.05;16.35;;;;;;;18.83;80.81;100920.45;2903842;82;21010;-72
2021/09/07 06:36:56;;;;;;;21.87;15.05;;;;;;;18.98;80.44;100923.37;2903796;81;21049;-72
2021/09/07 06:40:57;;;;;;;20.55;14.55;;;;;;;19.08;79.51;100923.25;2903696;82;21006;-72
2021/09/07 06:44:59;;;;;;;21.85;15.05;;;;;;;19.10;79.92;100926.62;2903940;82;21049;-72
2021/09/07 06:49:01;;;;;;;21.82;14.43;;;;;;;19.18;79.92;100926.61;2903768;82;20986;-72
2021/09/07 06:53:03;;;;;;;23.65;15.03;;;;;;;19.23;80.07;100928.81;2903706;82;20998;-72
2021/09/07 06:57:06;;;;;;;23.85;15.45;;;;;;;19.18;79.63;100936.05;2903715;82;21057;-72
2021/09/07 07:01:07;;;;;;;47.93;16.00;;;;;;;19.15;81.22;100941.78;2903796;82;21050;-72
2021/09/07 07:05:10;;;;;;;21.27;14.28;;;;;;;19.21;81.36;100942.98;2903771;82;20998;-71
2021/09/07 07:09:12;;;;;;;21.65;14.47;;;;;;;19.33;81.79;100943.48;2903967;82;21025;-71
2021/09/07 07:13:14;;;;;;;20.57;15.20;;;;;;;19.49;81.41;100945.34;2903823;82;21014;-71
2021/09/07 07:17:17;;;;;;;20.37;16.20;;;;;;;19.67;80.42;100945.18;2903693;80;20994;-72
2021/09/07 07:21:19;;;;;;;25.62;17.37;;;;;;;19.80;80.98;100943.31;2902207;82;21018;-71
2021/09/07 07:25:21;;;;;;;21.55;16.20;;;;;;;20.03;80.08;100950.20;2903883;81;21026;-71
2021/09/07 07:29:23;;;;;;;20.10;17.25;;;;;;;20.25;79.58;100946.45;2904682;81;21013;-71
2021/09/07 07:33:25;;;;;;;20.48;16.82;;;;;;;20.41;78.48;100955.83;2904074;82;21006;-71
2021/09/07 07:37:27;;;;;;;19.37;15.72;;;;;;;20.49;78.33;100960.36;2903577;82;21002;-71
2021/09/07 07:41:29;;;;;;;64.12;20.48;;;;;;;20.60;78.11;100965.06;2903789;82;21045;-71
2021/09/07 07:45:31;;;;;;;21.45;15.35;;;;;;;20.61;76.63;100958.11;2903930;82;21017;-71
2021/09/07 07:49:33;;;;;;;31.25;16.57;;;;;;;20.57;75.32;100974.35;2903922;82;20998;-70
2021/09/07 07:53:36;;;;;;;22.70;15.70;;;;;;;20.55;76.39;100971.84;2903863;82;20982;-71
2021/09/07 07:57:37;;;;;;;22.55;16.10;;;;;;;20.55;75.91;100969.14;2903896;82;21006;-71
2021/09/07 08:01:39;;;;;;;21.65;16.82;;;;;;;20.56;75.55;100980.78;2917729;81;21026;-71
2021/09/07 08:05:41;;;;;;;26.93;17.42;;;;;;;20.54;75.60;100978.76;2873129;83;20958;-71
2021/09/07 08:09:42;;;;;;;26.50;16.30;;;;;;;20.51;76.00;100981.81;2873344;83;21012;-72
2021/09/07 08:13:44;;;;;;;31.52;19.32;;;;;;;20.53;76.41;100980.61;2873234;83;21537;-71
2021/09/07 08:17:49;;;;;;;24.45;16.62;;;;;;;20.50;75.59;100974.73;2873376;82;21001;-71
2021/09/07 08:21:50;;;;;;;29.92;17.32;;;;;;;20.53;76.54;100979.78;2876562;82;20982;-71
2021/09/07 08:25:52;;;;;;;27.32;16.95;;;;;;;20.59;76.37;100976.89;2873375;83;21009;-71
2021/09/07 08:29:53;;;;;;;23.87;16.23;;;;;;;20.63;77.01;100975.52;2873628;83;21004;-71
2021/09/07 08:33:55;;;;;;;48.58;19.35;;;;;;;20.71;76.52;100976.82;2873602;83;20969;-71
2021/09/07 08:37:57;;;;;;;19.57;15.05;;;;;;;20.76;75.98;100983.06;2873548;82;20981;-71
2021/09/07 08:41:59;;;;;;;29.48;17.35;;;;;;;20.77;75.62;100986.09;2873425;83;21013;-72
2021/09/07 08:46:01;;;;;;;22.60;14.50;;;;;;;20.80;75.68;100981.22;2873522;82;20981;-71
2021/09/07 08:50:03;;;;;;;25.50;14.50;;;;;;;20.97;75.12;100983.84;2873615;83;21071;-71
2021/09/07 08:54:05;;;;;;;17.85;13.53;;;;;;;21.05;73.96;100982.95;2873552;83;21016;-71
2021/09/07 08:58:07;;;;;;;19.80;14.23;;;;;;;21.15;74.34;100981.38;2873319;82;21032;-71
2021/09/07 09:02:15;;;;;;;20.77;13.58;;;;;;;21.28;74.31;100986.19;2873181;83;21060;-71
2021/09/07 09:06:29;;;;;;;16.37;11.57;;;;;;;21.46;73.07;100995.34;2873415;82;21053;-71
2021/09/07 09:10:31;;;;;;;23.50;14.43;;;;;;;21.57;71.73;100995.43;2873188;83;21005;-71
2021/09/07 09:14:41;;;;;;;21.40;14.63;;;;;;;21.71;71.32;100997.88;2873187;83;21001;-71
2021/09/07 09:18:48;;;;;;;22.95;13.90;;;;;;;21.80;70.82;101004.92;2873069;82;20989;-71
2021/09/07 09:22:56;;;;;;;21.37;14.00;;;;;;;21.81;70.53;101007.47;2873107;83;21017;-70
2021/09/07 09:27:03;;;;;;;17.17;12.68;;;;;;;21.94;71.18;101009.55;2872657;82;21000;-71
2021/09/07 09:31:06;;;;;;;19.20;13.88;;;;;;;22.04;70.16;101003.01;2873050;83;20981;-70
2021/09/07 09:35:10;;;;;;;17.37;13.62;;;;;;;22.07;70.18;101006.20;2873033;82;21021;-70
2021/09/07 09:39:11;;;;;;;18.85;11.50;;;;;;;22.22;70.23;101006.73;2873140;83;21041;-70
2021/09/07 09:43:29;;;;;;;20.65;13.43;;;;;;;22.44;69.19;100996.82;2873552;83;21013;-71
2021/09/07 09:47:42;;;;;;;22.62;14.65;;;;;;;22.51;68.83;100995.59;2873715;83;20973;-70
2021/09/07 09:51:44;;;;;;;25.30;13.80;;;;;;;22.62;69.39;100988.36;2872629;83;21036;-71
2021/09/07 09:55:47;;;;;;;19.48;11.80;;;;;;;22.77;69.00;100982.05;2872983;83;21075;-71
2021/09/07 09:59:51;;;;;;;18.45;13.10;;;;;;;23.01;68.45;100983.59;2873199;83;21045;-71
2021/09/07 10:04:00;;;;;;;19.90;13.38;;;;;;;23.13;67.69;100989.35;2873305;83;21009;-71
2021/09/07 10:08:00;;;;;;;20.92;12.40;;;;;;;23.23;67.00;100992.61;2872738;82;21013;-71
2021/09/07 10:12:07;;;;;;;14.98;12.33;;;;;;;23.31;66.42;100993.03;2873296;83;21040;-71
2021/09/07 10:16:16;;;;;;;18.62;14.23;;;;;;;23.32;66.09;100985.72;2872301;82;21000;-70
2021/09/07 10:20:26;;;;;;;17.17;13.45;;;;;;;23.28;67.33;100984.43;2890192;81;20997;-71
2021/09/07 10:24:27;;;;;;;15.18;13.15;;;;;;;23.25;67.31;100991.92;2901758;82;21063;-71
2021/09/07 10:28:40;;;;;;;17.32;12.47;;;;;;;23.26;67.97;100990.03;2895539;82;21032;-71
2021/09/07 10:32:42;;;;;;;20.08;11.93;;;;;;;23.15;65.97;100995.95;2903257;82;21000;-71
2021/09/07 10:36:59;;;;;;;17.10;12.37;;;;;;;23.04;66.62;100997.30;2903192;82;21019;-71
2021/09/07 10:41:01;;;;;;;15.80;12.10;;;;;;;22.94;66.16;100990.29;2895001;81;21040;-71
2021/09/07 10:45:04;;;;;;;16.87;12.33;;;;;;;22.86;65.74;100983.63;2903247;82;20988;-71
2021/09/07 10:49:23;;;;;;;17.42;12.40;;;;;;;22.90;66.83;100987.64;2875765;82;20992;-71
2021/09/07 10:53:25;;;;;;;19.23;12.43;;;;;;;22.98;66.47;100989.41;2903121;82;21576;-71
2021/09/07 10:57:40;;;;;;;15.13;11.48;;;;;;;22.97;66.79;100985.01;2903160;82;20968;-71
2021/09/07 11:01:42;;;;;;;20.65;13.83;;;;;;;22.95;65.18;100987.90;2903338;82;21008;-71
2021/09/07 11:05:44;;;;;;;20.23;14.23;;;;;;;22.92;66.45;100989.64;2903248;82;20988;-71
2021/09/07 11:09:53;;;;;;;19.92;14.63;;;;;;;23.00;65.36;100987.34;2903210;82;21000;-71
2021/09/07 11:14:10;;;;;;;16.37;12.43;;;;;;;23.04;65.49;100985.91;2903200;82;21016;-71
2021/09/07 11:18:15;;;;;;;24.35;12.47;;;;;;;23.20;65.80;100986.21;2902909;82;21012;-71
2021/09/07 11:22:30;;;;;;;18.87;11.10;;;;;;;23.29;64.95;100992.89;2903565;82;21063;-71
2021/09/07 11:26:32;;;;;;;18.60;11.75;;;;;;;23.31;63.77;100990.31;2903819;80;21091;-71
2021/09/07 11:30:44;;;;;;;24.55;11.43;;;;;;;23.35;64.26;100983.97;2903027;82;21043;-70
2021/09/07 11:35:06;;;;;;;21.70;12.60;;;;;;;23.41;64.76;100990.00;2903120;82;21000;-71
2021/09/07 11:39:13;;;;;;;22.55;10.80;;;;;;;23.50;64.58;100990.71;2903175;82;20985;-71
2021/09/07 11:43:37;;;;;;;17.35;9.95;;;;;;;23.60;64.29;100981.70;2901198;81;21027;-70
2021/09/07 11:47:42;;;;;;;13.50;11.08;;;;;;;23.70;64.05;100982.72;2860129;83;20993;-71
2021/09/07 11:51:47;;;;;;;18.17;10.40;;;;;;;23.86;64.31;100992.98;2860360;83;21001;-70
2021/09/07 11:55:54;;;;;;;14.18;11.65;;;;;;;23.84;63.98;100985.56;2860491;83;20921;-71
2021/09/07 11:59:59;;;;;;;15.72;12.15;;;;;;;23.80;62.88;100990.53;2860483;83;20989;-71
2021/09/07 12:04:04;;;;;;;12.55;10.75;;;;;;;23.90;63.43;100990.19;2860491;83;20998;-71
2021/09/07 12:08:06;;;;;;;14.93;10.63;;;;;;;23.93;63.51;100982.50;2860715;83;20946;-71
2021/09/07 12:12:13;;;;;;;16.62;11.43;;;;;;;23.98;63.57;100981.91;2860431;83;21008;-71
2021/09/07 12:16:20;;;;;;;17.75;11.25;;;;;;;24.02;63.16;100982.36;2860513;83;20981;-72
2021/09/07 12:20:28;;;;;;;20.90;11.43;;;;;;;24.04;63.95;100979.78;2848413;83;20970;-70
2021/09/07 12:24:29;;;;;;;29.65;12.40;;;;;;;24.18;63.49;100982.06;2934197;79;21054;-71
2021/09/07 12:28:31;;;;;;;18.82;12.20;;;;;;;24.15;63.23;100984.33;2934170;81;20971;-71
2021/09/07 12:32:58;;;;;;;17.92;12.35;;;;;;;24.01;62.71;100981.51;2934160;81;21014;-71
2021/09/07 12:37:01;;;;;;;21.35;10.70;;;;;;;24.04;62.81;100983.86;2934307;81;21039;-70
2021/09/07 12:41:08;;;;;;;15.10;10.50;;;;;;;24.10;63.51;100984.41;2852289;83;21036;-71
2021/09/07 12:45:10;;;;;;;13.13;10.13;;;;;;;24.08;62.10;100981.59;2873292;82;20965;-71
2021/09/07 12:49:12;;;;;;;18.17;12.70;;;;;;;24.20;61.96;100977.27;2873235;83;21000;-71
2021/09/07 12:53:20;;;;;;;17.23;11.78;;;;;;;24.31;62.24;100978.58;2873436;83;21013;-71
2021/09/07 12:57:18;;;;;;;18.40;12.78;;;;;;;24.37;62.53;100976.44;2853639;82;21003;-70
2021/09/07 13:01:25;;;;;;;40.70;15.32;;;;;;;24.47;61.75;100973.86;2848283;83;20963;-71
2021/09/07 13:05:27;;;;;;;15.88;12.43;;;;;;;24.44;62.89;100975.09;2848740;83;21014;-73
2021/09/07 13:09:28;;;;;;;16.07;11.60;;;;;;;24.46;62.95;100969.45;2846753;83;21015;-72
2021/09/07 13:13:30;;;;;;;16.82;12.18;;;;;;;24.52;62.62;100975.44;2848004;83;20978;-72
2021/09/07 13:17:32;;;;;;;18.12;13.00;;;;;;;24.51;62.26;100969.69;2847577;83;21014;-70
2021/09/07 13:21:34;;;;;;;22.77;13.25;;;;;;;24.46;62.46;100966.74;2814885;83;21014;-70
2021/09/07 13:25:35;;;;;;;18.65;14.73;;;;;;;24.33;63.14;100965.63;2850525;82;20963;-70
2021/09/07 13:29:37;;;;;;;24.20;15.83;;;;;;;24.20;63.47;100969.64;2850516;82;20954;-71
2021/09/07 13:33:39;;;;;;;22.82;15.72;;;;;;;24.07;63.60;100971.23;2850535;83;21018;-71
2021/09/07 13:37:41;;;;;;;21.50;16.67;;;;;;;24.10;63.28;100959.13;2850641;83;21046;-70
2021/09/07 13:41:44;;;;;;;14.33;12.58;;;;;;;24.17;63.68;100955.06;2850585;83;20990;-70
2021/09/07 13:45:45;;;;;;;22.50;12.15;;;;;;;24.38;63.40;100948.71;2850670;83;21001;-71
2021/09/07 13:49:47;;;;;;;19.52;14.65;;;;;;;24.62;62.50;100944.64;2862260;82;21608;-71
2021/09/07 13:53:49;;;;;;;16.52;12.65;;;;;;;24.78;62.55;100942.11;2878434;82;21026;-71
2021/09/07 13:57:51;;;;;;;15.95;12.73;;;;;;;24.91;62.16;100936.39;2867206;82;20970;-71
2021/09/07 14:01:52;;;;;;;18.17;12.18;;;;;;;25.04;62.17;100937.77;2889059;82;21058;-71
2021/09/07 14:05:54;;;;;;;14.38;11.80;;;;;;;25.03;61.33;100940.17;2881168;82;20998;-71
2021/09/07 14:09:56;;;;;;;18.85;12.65;;;;;;;25.06;60.59;100934.85;2878711;82;20979;-71
2021/09/07 14:13:57;;;;;;;13.72;12.33;;;;;;;25.16;60.68;100938.02;2889426;82;20971;-71
2021/09/07 14:17:59;;;;;;;17.95;11.35;;;;;;;25.31;60.59;100940.55;2887890;82;20975;-71
2021/09/07 14:22:01;;;;;;;16.48;10.23;;;;;;;25.40;59.77;100939.82;2875673;82;21078;-71
2021/09/07 14:26:02;;;;;;;14.18;11.15;;;;;;;25.37;59.33;100937.52;2872524;82;20988;-71
2021/09/07 14:30:06;;;;;;;16.32;11.48;;;;;;;25.29;59.46;100934.98;2872581;82;20987;-72
2021/09/07 14:34:07;;;;;;;15.60;10.40;;;;;;;25.27;59.63;100939.30;2872172;82;20960;-72
2021/09/07 14:38:09;;;;;;;38.15;14.25;;;;;;;25.19;59.62;100934.88;2873038;83;20983;-72
2021/09/07 14:42:11;;;;;;;30.77;13.40;;;;;;;25.20;60.52;100925.67;2872591;82;20960;-72
2021/09/07 14:46:12;;;;;;;17.37;9.68;;;;;;;25.14;59.64;100919.67;2872520;83;21011;-72
2021/09/07 14:50:14;;;;;;;9.58;7.80;;;;;;;25.07;58.84;100925.64;2856812;82;21026;-72
2021/09/07 14:54:58;;;;;;;12.50;8.75;;;;;;;25.07;57.73;100925.64;3032904;77;22752;-71
2021/09/07 14:59:00;;;;;;;13.75;8.20;;;;;;;25.01;57.75;100923.22;3010119;78;21050;-71
2021/09/07 15:03:06;;;;;;;11.18;8.73;;;;;;;24.87;57.08;100923.72;3010599;78;20967;-71
2021/09/07 15:07:08;;;;;;;;;;;;;;;24.71;55.75;100929.49;3020232;78;21014;-70
2021/09/07 15:11:10;;;;;;;10.13;8.23;;;;;;;24.61;55.27;100931.23;3019050;78;20093;-71
2021/09/07 15:15:12;;;;;;;14.73;8.55;;;;;;;24.55;55.57;100930.16;3004637;78;20994;-71
2021/09/07 15:19:14;;;;;;;10.13;6.83;;;;;;;24.52;56.28;100933.30;3018818;78;20999;-71
2021/09/07 15:23:15;;;;;;;7.90;6.12;;;;;;;24.50;53.36;100931.30;3022810;78;21077;-71
2021/09/07 15:27:17;;;;;;;7.05;5.42;;;;;;;24.46;51.75;100925.95;3022663;78;20998;-71
2021/09/07 15:31:18;;;;;;;8.95;6.03;;;;;;;24.42;51.24;100922.80;3022297;78;20983;-70
2021/09/07 15:35:20;;;;;;;7.70;4.80;;;;;;;24.36;50.10;100922.25;3021974;79;21050;-71
2021/09/07 15:39:22;;;;;;;10.93;5.30;;;;;;;24.31;50.44;100924.21;3022664;78;21050;-71
2021/09/07 15:43:24;;;;;;;7.85;4.53;;;;;;;24.28;48.86;100923.80;2992959;78;20955;-71
2021/09/07 15:47:26;;;;;;;8.63;6.03;;;;;;;24.20;50.01;100919.36;2972732;80;21046;-71
2021/09/07 15:51:29;;;;;;;11.22;6.75;;;;;;;24.27;50.59;100920.22;2972408;79;21055;-71
2021/09/07 15:55:31;;;;;;;9.40;6.78;;;;;;;24.37;51.76;100926.14;2961443;78;21024;-71
2021/09/07 15:59:34;;;;;;;8.60;7.72;;;;;;;24.41;51.63;100925.73;3006036;78;20979;-70
2021/09/07 16:03:36;;;;;;;13.30;8.88;;;;;;;24.43;53.76;100920.92;3025704;78;21018;-71
2021/09/07 16:07:37;;;;;;;14.05;7.60;;;;;;;24.39;54.94;100923.20;3025977;78;21007;-70
2021/09/07 16:11:39;;;;;;;14.28;8.45;;;;;;;24.27;54.58;100920.22;3017989;78;21057;-71
2021/09/07 16:15:41;;;;;;;10.43;8.18;;;;;;;24.15;55.18;100913.67;3013186;78;21026;-71
2021/09/07 16:19:43;;;;;;;8.58;7.00;;;;;;;24.12;55.51;100911.36;3007682;78;21049;-71
2021/09/07 16:23:44;;;;;;;11.18;8.65;;;;;;;24.02;56.56;100910.36;3015760;78;21029;-71
2021/09/07 16:27:46;;;;;;;13.05;9.88;;;;;;;23.88;55.67;100907.55;3016072;78;20958;-69
2021/09/07 16:31:48;;;;;;;11.60;9.50;;;;;;;23.80;56.53;100909.91;3004962;78;21470;-69
2021/09/07 16:35:49;;;;;;;10.78;7.83;;;;;;;23.69;56.98;100906.36;3011158;78;21026;-68
2021/09/07 16:39:51;;;;;;;9.88;8.33;;;;;;;23.59;57.07;100909.95;3024583;78;20986;-68
2021/09/07 16:43:53;;;;;;;56.00;14.95;;;;;;;23.45;58.08;100911.20;3023249;78;20963;-69
2021/09/07 16:47:58;;;;;;;140.10;27.93;;;;;;;23.38;58.86;100907.57;3008939;78;21060;-68
2021/09/07 16:52:00;;;;;;;121.45;25.12;;;;;;;23.29;59.57;100910.11;3004380;78;21037;-69
2021/09/07 16:56:03;;;;;;;91.80;20.52;;;;;;;23.14;60.35;100906.09;2990591;78;21018;-69
2021/09/07 17:00:07;;;;;;;50.58;15.65;;;;;;;23.00;60.91;100911.91;3025050;77;20978;-69
2021/09/07 17:04:09;;;;;;;35.13;12.47;;;;;;;22.81;61.61;100912.33;3025169;78;20983;-69
2021/09/07 17:08:14;;;;;;;26.07;9.50;;;;;;;22.68;61.80;100908.95;3024903;77;20975;-69
2021/09/07 17:12:15;;;;;;;25.35;11.15;;;;;;;22.53;62.61;100912.21;3024289;78;21057;-69
2021/09/07 17:16:16;;;;;;;20.90;9.93;;;;;;;22.36;62.75;100908.85;3024497;78;20984;-69
2021/09/07 17:20:21;;;;;;;20.95;11.40;;;;;;;22.18;63.56;100915.50;3024995;78;20979;-69
2021/09/07 17:24:23;;;;;;;50.48;16.65;;;;;;;22.01;63.82;100915.35;3021535;78;21022;-69
2021/09/07 17:28:27;;;;;;;37.15;12.13;;;;;;;21.88;63.40;100920.06;2999410;78;21657;-69
2021/09/07 17:33:00;;;;;;;19.02;10.32;;;;;;;21.69;63.68;100927.69;3009669;78;21062;-69
2021/09/07 17:45:12;;;;;;;22.98;9.93;;;;;;;21.18;64.88;100926.38;3002703;78;21049;-70
2021/09/07 17:49:14;;;;;;;20.00;9.45;;;;;;;21.07;65.23;100929.00;3014735;78;21285;-70
2021/09/07 17:53:16;;;;;;;24.12;15.00;;;;;;;20.83;67.79;100928.14;3005228;78;21074;-68
2021/09/07 17:57:18;;;;;;;23.60;11.97;;;;;;;20.53;68.46;100928.44;3002386;79;21019;-69
2021/09/07 18:01:20;;;;;;;30.23;16.05;;;;;;;20.37;69.12;100938.29;3002460;79;21023;-70
2021/09/07 18:05:22;;;;;;;28.35;16.15;;;;;;;20.24;69.71;100933.44;3002401;79;21011;-69
2021/09/07 18:09:24;;;;;;;24.57;14.73;;;;;;;20.18;69.91;100937.34;3002419;79;21044;-69
2021/09/07 18:13:26;;;;;;;24.98;15.90;;;;;;;20.09;69.86;100937.38;3002224;79;21008;-70
2021/09/07 18:17:28;;;;;;;21.87;15.55;;;;;;;19.98;70.09;100939.94;3013864;79;20983;-69
2021/09/07 18:21:30;;;;;;;23.40;16.55;;;;;;;19.90;70.13;100941.77;2981195;78;20932;-69
2021/09/07 18:25:31;;;;;;;28.85;19.73;;;;;;;19.78;70.36;100937.24;2921868;81;21031;-69
2021/09/07 18:29:34;;;;;;;110.42;68.22;;;;;;;19.65;71.04;100941.78;2872384;83;21050;-69
2021/09/07 18:33:37;;;;;;;78.57;49.80;;;;;;;19.49;71.29;100943.50;2871006;83;21101;-69
2021/09/07 18:37:40;;;;;;;57.75;33.35;;;;;;;19.32;71.79;100955.29;2910349;82;20991;-69
2021/09/07 18:41:41;;;;;;;36.05;23.73;;;;;;;19.19;72.84;100952.56;2868306;82;21058;-69
2021/09/07 18:45:43;;;;;;;19.60;15.35;;;;;;;19.00;73.26;100960.95;2876975;82;20991;-69
2021/09/07 18:49:46;;;;;;;24.90;18.02;;;;;;;18.97;73.44;100953.52;2902823;82;21055;-69
2021/09/07 18:53:48;;;;;;;147.37;67.22;;;;;;;18.94;73.53;100946.25;2902256;81;21039;-68
2021/09/07 18:57:49;;;;;;;104.63;53.95;;;;;;;18.95;73.29;100960.92;2899009;82;21036;-69